Kezdőlap
METAR-TAF:

METAR-TAF

Repülőterek :

Accra, Ghána

Kotoka nemzetközi repülőtér

földrajzi szélesség: 05-36N, földrajzi hosszúság: 000-10W, magasság: 68 m

Jelenlegi meteorológiai megfigyelések

A jelentés 3 órával és 54 perccel ezelõtt készült, 15:00 UTC
Déli szél 9 kt
Hőmérséklet 32°C
Páratartalom 59%
Légköri nyomás 1009 hPa
Látótávolság 10 km, vagy több
Kevés felhő 1600 lábon

METAR: DGAA 261500Z 18009KT 9999 FEW016 32/23 Q1009 NOSIG

Idő: 18:54 (18:54 UTC)

Előrejelzés

A jelentés 7 órával és 54 perccel ezelõtt készült, 11:00 UTC
Az előrejelzés 26-én 12 óra UTC és 27-én 18 óra UTC között érvényes
Délnyugati szél 10 kt
Látótávolság 10 km, vagy több
Kevés felhő 2800 lábon
27-én 00 óra UTC és 27-én 02 óra UTC között fokozatosan kialakuló
Nyugati szél 8 kt
Kevés felhő 1100 lábon
Valószínűség 30%
CA és VO óra UTC között

TAF: DGAA 261100Z 2612/2718 22010KT 9999 FEW028 BECMG 2700/2702 27008KT FEW011 PROB30 CAVOK

Meteorológiai megfigyelések és előrejelzések több, mint 4000 repülőtéren (METAR és TAF jelentéseket).

A térképen piros és sárga pontok jelzik az elérhető meteorológiai állomásokat.

Mozgassa az egeret a pont fölött, hogy megjelenjen az állomás neve.

Azután kattintson az időjárási megfigyelések és előrejelzések megtekintéséhez.

A térkép megváltoztatása: kattintson a fekete keresztel jelölt zöld gombra ráközelítéshez, a vonallal jelölt zöld gombra távolításhoz, vagy a zöld nyilakra a szomszédos térképek eléréséhez.


METAR-TAF: